Time;durP1;ratioP1;P1;durP2;ratioP2;P2;SDS_P1;SDS_P2;PMS_P1;PMS_P2;Temp;Humidity;BMP_temperature;BMP_pressure;BME280_temperature;BME280_humidity;BME280_pressure;Samples;Min_cycle;Max_cycle;Signal;HPM_P1;HPM_P2
2021/05/28 00:00:58;;;;;;;9.57;7.03;;;;;;;19.27;58.01;99735.75;5050697;28;20044;-25
2021/05/28 00:03:23;;;;;;;9.10;6.78;;;;;;;19.24;58.32;99736.31;5050887;28;20037;-25
2021/05/28 00:05:49;;;;;;;10.57;6.75;;;;;;;18.83;59.84;99720.44;5049475;28;20127;-25
2021/05/28 00:08:15;;;;;;;12.75;7.60;;;;;;;19.12;59.52;99733.19;5050491;28;20037;-25
2021/05/28 00:10:40;;;;;;;9.00;6.80;;;;;;;19.27;58.30;99724.94;5050817;28;20804;-24
2021/05/28 00:13:06;;;;;;;9.90;7.45;;;;;;;19.38;58.10;99735.66;5050688;28;20079;-25
2021/05/28 00:15:33;;;;;;;12.23;7.10;;;;;;;18.79;59.13;99732.09;5050576;28;20066;-25
2021/05/28 00:17:58;;;;;;;11.73;7.15;;;;;;;19.02;58.79;99736.78;5050350;28;20035;-24
2021/05/28 00:20:24;;;;;;;8.73;7.18;;;;;;;18.76;59.54;99746.94;5050058;28;20028;-25
2021/05/28 00:22:49;;;;;;;11.07;7.07;;;;;;;18.68;59.51;99734.84;5050443;28;20076;-24
2021/05/28 00:25:15;;;;;;;10.73;7.80;;;;;;;18.95;58.71;99730.09;5049194;28;20106;-25
2021/05/28 00:27:42;;;;;;;11.88;7.65;;;;;;;18.79;58.98;99719.38;5050258;28;20033;-24
2021/05/28 00:30:08;;;;;;;9.67;7.00;;;;;;;18.54;59.95;99724.97;5050432;28;20489;-24
2021/05/28 00:32:34;;;;;;;11.57;7.63;;;;;;;18.60;59.62;99713.03;5050003;28;20032;-25
2021/05/28 00:34:59;;;;;;;11.35;8.02;;;;;;;18.71;59.61;99727.25;5050189;28;20037;-24
2021/05/28 00:37:25;;;;;;;10.70;8.00;;;;;;;18.35;60.73;99720.22;5050427;28;20733;-25
2021/05/28 00:39:51;;;;;;;11.18;8.27;;;;;;;18.19;60.99;99716.78;5050281;28;20497;-25
2021/05/28 00:42:16;;;;;;;12.60;8.10;;;;;;;17.92;62.02;99716.34;5049761;28;20143;-25
2021/05/28 00:44:42;;;;;;;10.40;7.95;;;;;;;17.72;62.32;99706.44;5050237;28;20036;-25
2021/05/28 00:47:07;;;;;;;15.52;8.93;;;;;;;17.72;62.57;99717.22;5050145;28;20029;-24
2021/05/28 00:49:33;;;;;;;11.57;8.35;;;;;;;17.61;63.12;99713.72;5049695;28;20032;-24
2021/05/28 00:51:58;;;;;;;10.48;7.88;;;;;;;17.47;62.68;99700.03;5049539;28;20493;-24
2021/05/28 00:54:24;;;;;;;13.07;8.13;;;;;;;17.41;63.84;99712.72;5049645;28;20500;-24
2021/05/28 00:56:50;;;;;;;10.73;8.10;;;;;;;17.41;63.77;99712.72;5049752;28;20082;-24
2021/05/28 00:59:16;;;;;;;10.50;8.52;;;;;;;18.12;62.15;99704.66;5049692;28;20589;-24
2021/05/28 01:01:41;;;;;;;12.57;8.65;;;;;;;18.38;61.85;99703.44;5049535;28;20024;-25
2021/05/28 01:04:07;;;;;;;12.10;8.88;;;;;;;18.27;62.83;99710.00;5049438;28;20032;-25
2021/05/28 01:06:33;;;;;;;14.35;9.25;;;;;;;18.23;63.53;99696.25;5049565;28;20040;-24
2021/05/28 01:08:58;;;;;;;11.82;9.25;;;;;;;18.16;64.48;99689.53;5049724;28;20027;-25
2021/05/28 01:11:24;;;;;;;12.60;9.30;;;;;;;18.19;64.51;99699.78;5049382;28;20033;-25
2021/05/28 01:13:50;;;;;;;11.60;8.93;;;;;;;18.10;65.02;99702.25;5049562;28;20120;-24
2021/05/28 01:16:16;;;;;;;13.15;8.93;;;;;;;18.33;64.45;99700.78;5049310;28;20524;-25
2021/05/28 01:18:41;;;;;;;12.07;9.23;;;;;;;18.23;64.21;99693.53;5047984;28;20444;-25
2021/05/28 01:21:08;;;;;;;11.93;9.23;;;;;;;18.16;65.09;99694.94;5049336;28;20064;-25
2021/05/28 01:23:34;;;;;;;12.27;8.73;;;;;;;18.00;66.15;99703.13;5049370;28;20055;-25
2021/05/28 01:25:59;;;;;;;11.75;9.00;;;;;;;17.56;67.33;99684.09;5049444;28;20032;-24
2021/05/28 01:28:25;;;;;;;13.57;9.23;;;;;;;17.52;67.90;99681.13;5047878;28;20033;-24
2021/05/28 01:30:50;;;;;;;12.93;9.13;;;;;;;17.32;68.56;99670.41;5049124;28;20033;-25
2021/05/28 01:33:16;;;;;;;11.95;9.70;;;;;;;17.31;68.19;99674.19;5048864;28;20102;-25
2021/05/28 01:35:41;;;;;;;13.63;9.23;;;;;;;16.77;69.47;99675.56;5048904;28;20096;-24
2021/05/28 01:38:07;;;;;;;12.50;8.95;;;;;;;16.69;69.31;99668.81;5049477;28;20068;-25
2021/05/28 01:40:33;;;;;;;10.50;9.07;;;;;;;17.00;67.87;99658.88;5048722;28;20040;-24
2021/05/28 01:42:58;;;;;;;12.15;8.85;;;;;;;17.32;67.91;99665.81;5048821;28;20072;-25
2021/05/28 01:45:24;;;;;;;11.73;8.40;;;;;;;17.07;68.07;99664.00;5048696;28;20059;-24
2021/05/28 01:47:50;;;;;;;11.25;8.57;;;;;;;16.71;68.91;99669.34;5048643;28;20163;-25
2021/05/28 01:50:15;;;;;;;10.90;8.63;;;;;;;16.56;68.98;99653.22;5048310;28;20098;-26
2021/05/28 01:52:41;;;;;;;11.35;8.30;;;;;;;16.56;69.85;99648.63;5048994;28;20088;-24
2021/05/28 01:55:09;;;;;;;9.23;7.40;;;;;;;16.38;69.17;99647.25;5048839;28;20033;-25
2021/05/28 01:57:35;;;;;;;9.27;7.60;;;;;;;16.50;69.71;99665.03;5049003;28;20033;-25
2021/05/28 02:00:00;;;;;;;10.52;8.05;;;;;;;16.83;68.53;99666.44;5048705;28;20040;-25
2021/05/28 02:02:26;;;;;;;12.45;8.20;;;;;;;16.76;68.14;99653.22;5048177;28;20068;-25
2021/05/28 02:04:51;;;;;;;11.02;8.35;;;;;;;17.11;66.53;99656.19;5048959;28;20511;-24
2021/05/28 02:07:17;;;;;;;13.57;8.45;;;;;;;17.08;66.88;99649.47;5048736;28;20409;-24
2021/05/28 02:09:42;;;;;;;9.77;7.72;;;;;;;16.59;68.15;99663.44;5048521;28;20974;-25
2021/05/28 02:12:08;;;;;;;10.57;8.43;;;;;;;16.06;69.28;99650.97;5048355;28;20405;-24
2021/05/28 02:14:34;;;;;;;9.68;8.10;;;;;;;15.93;70.34;99661.41;5046437;28;20475;-24
2021/05/28 02:16:59;;;;;;;13.27;9.27;;;;;;;16.39;68.83;99658.84;5048072;28;20061;-25
2021/05/28 02:19:25;;;;;;;11.68;8.02;;;;;;;16.62;69.10;99665.59;5047116;28;20051;-24
2021/05/28 02:21:51;;;;;;;13.15;8.23;;;;;;;16.44;68.70;99667.72;5048548;28;20068;-24
2021/05/28 02:24:17;;;;;;;10.35;7.68;;;;;;;16.04;69.81;99673.84;5048155;28;20032;-25
2021/05/28 02:26:45;;;;;;;11.20;7.93;;;;;;;15.90;70.52;99678.91;5048131;28;20032;-25
2021/05/28 02:29:11;;;;;;;11.95;8.23;;;;;;;16.27;69.39;99680.63;5047995;28;20032;-24
2021/05/28 02:31:37;;;;;;;12.18;9.60;;;;;;;16.52;68.73;99687.13;5047813;28;20378;-24
2021/05/28 02:34:02;;;;;;;14.63;10.93;;;;;;;16.48;68.83;99689.53;5048093;28;20035;-25
2021/05/28 02:36:28;;;;;;;15.35;9.82;;;;;;;16.89;68.49;99691.47;5047803;28;20041;-25
2021/05/28 02:38:54;;;;;;;14.50;9.95;;;;;;;17.16;67.16;99694.72;5048061;28;20041;-25
2021/05/28 02:41:20;;;;;;;16.35;10.57;;;;;;;17.22;67.54;99693.63;5047984;28;20044;-24
2021/05/28 02:43:45;;;;;;;14.35;10.75;;;;;;;17.35;66.47;99696.84;5047856;28;20111;-24
2021/05/28 02:46:11;;;;;;;14.05;10.85;;;;;;;17.09;68.04;99688.78;5047432;28;20060;-25
2021/05/28 02:48:36;;;;;;;13.38;11.05;;;;;;;17.46;67.43;99688.44;5047570;28;20161;-25
2021/05/28 02:51:02;;;;;;;16.48;11.98;;;;;;;17.59;68.25;99687.06;5047502;28;20060;-24
2021/05/28 02:53:33;;;;;;;15.32;11.90;;;;;;;17.58;67.51;99681.94;5047632;28;20033;-24
2021/05/28 02:55:59;;;;;;;15.43;11.90;;;;;;;17.80;66.60;99687.78;5047614;28;20040;-24
2021/05/28 02:58:25;;;;;;;14.40;11.05;;;;;;;17.28;68.91;99686.31;5047462;28;20108;-25
2021/05/28 03:00:50;;;;;;;13.80;11.52;;;;;;;17.26;69.26;99689.31;5046371;28;20124;-25
2021/05/28 03:03:16;;;;;;;18.17;11.65;;;;;;;17.57;68.41;99689.22;5047664;28;20036;-24
2021/05/28 03:05:41;;;;;;;14.25;11.55;;;;;;;17.35;69.21;99696.84;5047320;28;20029;-25
2021/05/28 03:08:07;;;;;;;18.48;12.82;;;;;;;17.88;67.41;99694.53;5046270;28;20485;-25
2021/05/28 03:10:32;;;;;;;23.52;13.18;;;;;;;17.70;68.30;99690.53;5047040;28;20500;-25
2021/05/28 03:12:58;;;;;;;32.78;14.13;;;;;;;17.50;68.99;99693.28;5047399;28;20493;-25
2021/05/28 03:15:24;;;;;;;14.98;12.40;;;;;;;17.19;69.95;99667.19;5047097;28;20063;-25
2021/05/28 03:17:49;;;;;;;16.65;12.45;;;;;;;17.17;70.07;99690.91;5047279;28;20071;-24
2021/05/28 03:20:25;;;;;;;16.33;12.02;;;;;;;17.27;69.58;99685.50;5046960;28;20070;-25
2021/05/28 03:22:50;;;;;;;15.50;12.57;;;;;;;17.20;69.98;99695.78;5047407;28;20029;-25
2021/05/28 03:25:16;;;;;;;18.95;12.55;;;;;;;16.95;70.87;99677.72;5046123;28;20036;-25
2021/05/28 03:27:42;;;;;;;19.33;13.73;;;;;;;16.94;70.61;99686.06;5046968;28;20075;-25
2021/05/28 03:30:09;;;;;;;15.52;12.13;;;;;;;16.88;70.57;99687.97;5046995;28;20025;-25
2021/05/28 03:32:34;;;;;;;17.80;12.38;;;;;;;16.63;71.23;99664.50;5046849;28;20052;-25
2021/05/28 03:35:00;;;;;;;15.73;11.88;;;;;;;16.51;71.33;99688.19;5045824;28;20495;-24
2021/05/28 03:37:26;;;;;;;13.52;10.25;;;;;;;16.24;70.56;99694.59;5047037;28;20029;-25
2021/05/28 03:39:51;;;;;;;16.60;11.05;;;;;;;16.38;70.98;99678.75;5047167;28;20036;-25
2021/05/28 03:42:17;;;;;;;14.07;10.02;;;;;;;16.40;69.75;99680.09;5046340;28;20090;-25
2021/05/28 03:44:43;;;;;;;14.98;10.68;;;;;;;16.77;69.22;99689.81;5046751;28;20033;-25
2021/05/28 03:47:09;;;;;;;14.95;11.18;;;;;;;17.16;67.95;99685.78;5047030;28;20108;-25
2021/05/28 03:49:34;;;;;;;14.98;11.80;;;;;;;17.01;68.90;99692.00;5047613;28;20131;-25
2021/05/28 03:52:00;;;;;;;14.52;11.73;;;;;;;16.90;69.01;99695.78;5046584;28;20053;-24
2021/05/28 03:54:25;;;;;;;15.48;11.27;;;;;;;16.57;70.42;99681.72;5046671;28;20029;-25
2021/05/28 03:56:51;;;;;;;18.50;11.85;;;;;;;16.54;70.80;99693.03;5046844;28;20033;-26
2021/05/28 03:59:16;;;;;;;16.80;11.55;;;;;;;16.60;71.02;99692.78;5046815;28;20025;-24
2021/05/28 04:01:42;;;;;;;24.48;16.08;;;;;;;16.36;71.98;99692.47;5045483;28;20063;-24
2021/05/28 04:04:08;;;;;;;18.88;14.15;;;;;;;16.73;70.88;99702.19;5046818;28;20060;-24
2021/05/28 04:06:33;;;;;;;19.70;13.57;;;;;;;17.12;70.07;99714.34;5046703;28;20032;-25
2021/05/28 04:08:59;;;;;;;17.13;13.20;;;;;;;17.52;68.51;99697.31;5046879;28;20065;-24
2021/05/28 04:11:24;;;;;;;19.33;12.45;;;;;;;17.71;67.93;99699.41;5046613;28;20048;-24
2021/05/28 04:13:50;;;;;;;20.48;12.07;;;;;;;17.87;67.60;99695.59;5046638;28;20029;-25
2021/05/28 04:16:16;;;;;;;15.63;11.38;;;;;;;18.09;67.28;99694.44;5045547;28;20029;-25
2021/05/28 04:18:41;;;;;;;15.80;10.63;;;;;;;17.95;67.96;99695.03;5046795;28;20049;-25
2021/05/28 04:21:07;;;;;;;16.15;9.98;;;;;;;18.13;67.88;99706.28;5046625;28;20036;-25
2021/05/28 04:23:33;;;;;;;14.15;9.73;;;;;;;18.12;67.84;99705.47;5046563;28;20452;-24
2021/05/28 04:25:58;;;;;;;15.13;10.55;;;;;;;18.22;67.74;99693.81;5046621;28;20148;-25
2021/05/28 04:28:25;;;;;;;13.55;10.55;;;;;;;18.23;67.90;99692.75;5046025;28;20083;-25
2021/05/28 04:30:51;;;;;;;14.73;10.40;;;;;;;18.20;67.59;99686.00;5046551;28;20033;-24
2021/05/28 04:33:16;;;;;;;15.40;10.52;;;;;;;18.47;67.46;99706.38;5046744;28;20079;-25
2021/05/28 04:35:42;;;;;;;19.08;11.18;;;;;;;18.36;68.27;99705.59;5046561;28;20064;-25
2021/05/28 04:38:07;;;;;;;16.25;10.68;;;;;;;18.10;68.83;99701.44;5048962;28;20029;-24
2021/05/28 04:40:34;;;;;;;16.85;11.00;;;;;;;18.42;67.90;99720.69;5050002;28;20039;-24
2021/05/28 04:43:00;;;;;;;14.23;10.52;;;;;;;18.37;67.72;99701.84;5049788;28;20033;-25
2021/05/28 04:45:26;;;;;;;17.73;11.32;;;;;;;18.76;67.24;99721.84;5050059;28;20079;-25
2021/05/28 04:47:52;;;;;;;16.77;10.68;;;;;;;18.57;67.29;99716.28;5049915;28;20025;-25
2021/05/28 04:50:17;;;;;;;18.33;12.95;;;;;;;18.75;67.13;99718.31;5049690;28;20040;-24
2021/05/28 04:52:45;;;;;;;16.80;11.10;;;;;;;18.86;66.67;99714.50;5049769;28;20584;-24
2021/05/28 04:55:11;;;;;;;16.92;11.50;;;;;;;19.10;66.45;99716.44;5049739;28;20039;-24
2021/05/28 04:57:36;;;;;;;15.82;11.95;;;;;;;19.28;65.59;99710.31;5049785;28;20040;-24
2021/05/28 05:00:06;;;;;;;21.77;14.15;;;;;;;19.09;66.04;99682.41;5049941;28;20036;-25
2021/05/28 05:02:32;;;;;;;21.85;14.77;;;;;;;19.22;66.07;99705.25;5049569;28;20029;-25
2021/05/28 05:04:57;;;;;;;15.50;12.00;;;;;;;19.37;65.74;99712.41;5049650;28;20032;-24
2021/05/28 05:07:23;;;;;;;15.23;10.80;;;;;;;19.37;65.98;99725.91;5049632;28;20119;-25
2021/05/28 05:09:49;;;;;;;15.60;11.32;;;;;;;19.59;65.51;99722.72;5049472;28;20039;-25
2021/05/28 05:12:14;;;;;;;26.05;16.98;;;;;;;19.67;64.58;99714.78;5049201;28;20040;-25
2021/05/28 05:14:40;;;;;;;15.70;11.63;;;;;;;19.64;65.16;99726.19;5049379;28;20035;-25
2021/05/28 05:17:05;;;;;;;20.48;11.52;;;;;;;19.98;64.74;99728.00;5049711;28;20029;-27
2021/05/28 05:19:31;;;;;;;15.02;11.48;;;;;;;19.71;65.85;99723.16;5049425;28;20092;-25
2021/05/28 05:21:56;;;;;;;16.27;12.07;;;;;;;19.83;66.01;99725.47;5049453;28;20121;-25
2021/05/28 05:24:22;;;;;;;14.55;11.25;;;;;;;20.16;66.23;99734.53;5049429;28;20186;-25
2021/05/28 05:26:49;;;;;;;16.60;11.02;;;;;;;20.02;64.72;99723.63;5049450;28;20029;-26
2021/05/28 05:29:14;;;;;;;18.30;12.52;;;;;;;20.26;64.51;99733.59;5049384;28;20040;-24
2021/05/28 05:31:40;;;;;;;13.82;11.38;;;;;;;20.31;64.14;99728.13;5049562;28;20036;-24
2021/05/28 05:34:06;;;;;;;27.25;16.92;;;;;;;20.22;63.89;99732.56;5049010;28;20049;-27
2021/05/28 05:36:34;;;;;;;14.85;10.85;;;;;;;19.85;64.96;99720.56;5047626;28;20048;-25
2021/05/28 05:39:00;;;;;;;14.27;10.57;;;;;;;20.35;63.24;99747.28;5048769;28;20408;-24
2021/05/28 05:41:26;;;;;;;15.82;11.57;;;;;;;20.28;63.02;99734.91;5049345;28;20037;-25
2021/05/28 05:43:51;;;;;;;17.48;12.23;;;;;;;20.45;62.53;99747.13;5047855;28;20060;-24
2021/05/28 05:46:17;;;;;;;22.75;14.13;;;;;;;20.26;63.08;99733.59;5048992;28;20109;-25
2021/05/28 05:48:43;;;;;;;15.85;10.90;;;;;;;20.44;62.21;99734.72;5047787;28;20039;-25
2021/05/28 05:51:08;;;;;;;17.77;13.13;;;;;;;20.77;61.21;99743.72;5048590;28;20095;-25
2021/05/28 05:53:34;;;;;;;14.35;10.73;;;;;;;20.74;61.93;99738.91;5048856;28;20052;-25
2021/05/28 05:55:59;;;;;;;20.70;10.98;;;;;;;20.39;62.73;99738.31;5048848;28;20037;-25
2021/05/28 05:58:25;;;;;;;13.80;11.18;;;;;;;20.84;61.75;99736.03;5048503;28;20029;-25
2021/05/28 06:00:51;;;;;;;16.17;11.52;;;;;;;21.24;60.97;99736.44;5048753;28;20036;-26
2021/05/28 06:03:16;;;;;;;17.02;11.77;;;;;;;21.20;60.89;99721.88;5048768;28;20044;-25
2021/05/28 06:05:42;;;;;;;15.80;11.13;;;;;;;20.96;61.20;99718.50;5048749;28;20090;-25
2021/05/28 06:08:07;;;;;;;17.75;11.35;;;;;;;21.12;61.53;99730.69;5048371;28;20129;-24
2021/05/28 06:10:33;;;;;;;13.73;10.52;;;;;;;20.95;61.28;99727.75;5048136;28;20108;-26
2021/05/28 06:13:08;;;;;;;15.60;11.13;;;;;;;21.05;61.14;99716.72;5048647;28;20036;-25
2021/05/28 06:15:34;;;;;;;13.20;10.55;;;;;;;21.11;61.30;99729.09;5048291;28;20025;-25
2021/05/28 06:18:00;;;;;;;14.95;11.25;;;;;;;20.51;62.09;99718.09;5048573;28;20215;-25
2021/05/28 06:20:25;;;;;;;13.13;10.18;;;;;;;20.76;62.28;99747.53;5048373;28;20043;-24
2021/05/28 06:22:51;;;;;;;14.98;10.73;;;;;;;20.90;62.30;99746.78;5048244;28;20053;-25
2021/05/28 06:25:16;;;;;;;17.20;11.20;;;;;;;21.00;61.69;99735.78;5048337;28;20478;-25
2021/05/28 06:27:42;;;;;;;20.83;10.93;;;;;;;21.05;61.86;99749.25;5048225;28;20474;-26
2021/05/28 06:30:08;;;;;;;14.88;11.00;;;;;;;21.02;61.09;99752.56;5048382;28;20033;-24
2021/05/28 06:32:34;;;;;;;14.00;9.70;;;;;;;21.09;61.18;99755.69;5047881;28;20382;-25
2021/05/28 06:34:59;;;;;;;20.05;15.75;;;;;;;21.16;60.97;99739.84;5047899;28;20112;-25
2021/05/28 06:37:25;;;;;;;13.35;11.05;;;;;;;21.29;60.68;99754.56;5047761;28;20428;-24
2021/05/28 06:39:51;;;;;;;15.23;11.48;;;;;;;21.26;60.72;99745.09;5047681;28;20036;-27
2021/05/28 06:42:17;;;;;;;17.05;10.05;;;;;;;21.09;61.16;99742.16;5047760;28;20056;-24
2021/05/28 06:44:42;;;;;;;15.05;11.27;;;;;;;21.35;60.67;99741.69;5047983;28;20059;-25
2021/05/28 06:47:08;;;;;;;11.02;9.73;;;;;;;21.07;61.30;99742.44;5047933;28;20033;-25
2021/05/28 06:49:34;;;;;;;13.00;10.43;;;;;;;21.45;59.85;99742.38;5047700;28;20033;-25
2021/05/28 06:51:59;;;;;;;15.50;10.43;;;;;;;21.38;59.96;99730.25;5047484;28;20045;-24
2021/05/28 06:54:25;;;;;;;14.35;10.30;;;;;;;21.77;59.35;99748.00;5047398;28;20056;-25
2021/05/28 06:56:50;;;;;;;12.55;10.20;;;;;;;21.82;58.92;99739.75;5047571;28;20036;-25
2021/05/28 06:59:16;;;;;;;13.90;10.60;;;;;;;21.90;58.08;99740.97;5048004;28;20025;-25
2021/05/28 07:01:41;;;;;;;16.48;10.88;;;;;;;21.57;59.57;99733.72;5047583;28;20090;-25
2021/05/28 07:04:07;;;;;;;15.63;9.95;;;;;;;21.52;59.08;99746.59;5046245;28;20559;-25
2021/05/28 07:06:32;;;;;;;15.82;10.57;;;;;;;21.77;58.90;99748.00;5046442;28;20508;-26
2021/05/28 07:08:58;;;;;;;12.00;10.32;;;;;;;22.11;58.14;99747.59;5047440;28;20029;-25
2021/05/28 07:11:24;;;;;;;14.93;10.63;;;;;;;21.89;58.75;99733.94;5047343;28;20044;-25
2021/05/28 07:13:50;;;;;;;14.00;10.40;;;;;;;22.28;57.02;99744.28;5047440;28;20032;-25
2021/05/28 07:16:15;;;;;;;14.13;10.88;;;;;;;22.24;57.46;99735.94;5047079;28;20037;-25
2021/05/28 07:18:41;;;;;;;13.13;9.63;;;;;;;22.46;57.03;99747.97;5047366;28;20043;-24
2021/05/28 07:21:07;;;;;;;14.98;10.40;;;;;;;22.38;57.27;99745.97;5047253;28;20033;-25
2021/05/28 07:23:33;;;;;;;13.55;10.10;;;;;;;22.18;57.64;99753.41;5047152;28;20029;-25
2021/05/28 07:26:00;;;;;;;20.17;10.10;;;;;;;22.16;57.57;99755.63;5046902;28;20039;-24
2021/05/28 07:28:29;;;;;;;17.50;9.38;;;;;;;21.83;58.31;99752.22;5046907;28;20123;-25
2021/05/28 07:30:55;;;;;;;12.68;9.55;;;;;;;21.54;59.34;99744.38;5046015;28;20040;-25
2021/05/28 07:33:21;;;;;;;14.27;9.18;;;;;;;21.45;59.98;99746.97;5047140;28;20028;-24
2021/05/28 07:35:47;;;;;;;14.18;9.38;;;;;;;21.63;59.80;99756.13;5046878;28;20064;-25
2021/05/28 07:38:12;;;;;;;15.80;9.52;;;;;;;21.85;58.94;99758.16;5046818;28;20037;-25
2021/05/28 07:40:38;;;;;;;15.00;9.25;;;;;;;21.48;60.34;99751.81;5046879;28;20033;-24
2021/05/28 07:43:04;;;;;;;19.77;10.43;;;;;;;21.26;60.92;99728.03;5047020;28;20044;-25
2021/05/28 07:45:29;;;;;;;13.45;9.02;;;;;;;20.94;61.30;99751.31;5047256;28;20036;-25
2021/05/28 07:47:55;;;;;;;17.60;10.20;;;;;;;20.74;62.19;99746.22;5047337;28;20067;-24
2021/05/28 07:50:21;;;;;;;15.90;10.25;;;;;;;20.93;62.14;99748.91;5046577;28;20112;-24
2021/05/28 07:52:46;;;;;;;16.83;11.00;;;;;;;21.00;62.70;99760.19;5047000;28;20096;-25
2021/05/28 07:55:12;;;;;;;13.95;10.20;;;;;;;21.04;62.75;99763.91;5047187;28;20111;-26
2021/05/28 07:57:37;;;;;;;12.60;9.85;;;;;;;21.51;61.83;99750.41;5047171;28;20040;-25
2021/05/28 08:00:04;;;;;;;13.40;9.48;;;;;;;22.00;60.16;99752.41;5047003;28;20069;-24
2021/05/28 08:02:30;;;;;;;11.75;9.18;;;;;;;22.57;58.40;99756.69;5046682;28;20029;-25
2021/05/28 08:04:55;;;;;;;12.15;8.63;;;;;;;22.82;56.99;99772.44;5046694;28;20387;-25
2021/05/28 08:07:21;;;;;;;12.27;9.02;;;;;;;22.86;55.53;99761.72;5047039;28;20036;-24
2021/05/28 08:09:49;;;;;;;13.45;9.02;;;;;;;22.59;57.05;99763.41;5047000;28;20086;-24
2021/05/28 08:12:14;;;;;;;11.90;9.00;;;;;;;22.80;56.61;99763.78;5048628;28;20043;-25
2021/05/28 08:14:40;;;;;;;12.15;8.80;;;;;;;22.55;57.19;99756.19;5050741;28;20041;-24
2021/05/28 08:17:05;;;;;;;11.32;8.30;;;;;;;22.31;57.84;99751.81;5050627;28;20025;-24
2021/05/28 08:19:31;;;;;;;10.23;7.63;;;;;;;21.96;56.96;99759.56;5050478;28;20523;-24
2021/05/28 08:21:56;;;;;;;10.13;8.05;;;;;;;22.11;58.04;99768.50;5050537;28;20039;-25
2021/05/28 08:24:22;;;;;;;14.63;10.10;;;;;;;22.18;59.01;99768.91;5050369;28;20052;-25
2021/05/28 08:26:47;;;;;;;12.30;8.13;;;;;;;22.34;58.04;99770.22;5050615;28;20029;-25
2021/05/28 08:29:13;;;;;;;12.90;8.18;;;;;;;22.28;58.09;99766.00;5050529;28;20033;-24
2021/05/28 08:31:39;;;;;;;11.45;8.20;;;;;;;22.42;59.63;99764.06;5050188;28;20036;-24
2021/05/28 08:34:04;;;;;;;13.82;8.65;;;;;;;22.57;59.60;99764.84;5050570;28;20033;-25
2021/05/28 08:36:30;;;;;;;10.85;8.68;;;;;;;22.86;58.02;99750.84;5050258;28;20082;-25
2021/05/28 08:38:55;;;;;;;9.13;7.47;;;;;;;22.82;57.40;99756.13;5050521;28;20032;-24
2021/05/28 08:41:22;;;;;;;12.32;8.70;;;;;;;22.74;57.89;99748.69;5050401;28;20044;-24
2021/05/28 08:43:47;;;;;;;9.68;7.15;;;;;;;22.48;57.70;99750.38;5050089;28;20021;-24
2021/05/28 08:46:14;;;;;;;10.57;7.68;;;;;;;22.31;58.17;99734.72;5049981;28;20531;-24
2021/05/28 08:48:39;;;;;;;10.70;7.82;;;;;;;22.45;57.50;99749.91;5050044;28;20025;-25
2021/05/28 08:51:05;;;;;;;10.63;8.00;;;;;;;22.77;56.04;99739.91;5049743;28;20106;-25
2021/05/28 08:53:31;;;;;;;9.50;7.38;;;;;;;22.75;55.64;99744.84;5049956;28;20139;-25
2021/05/28 08:55:56;;;;;;;10.40;7.10;;;;;;;22.71;55.40;99729.47;5049874;28;20033;-24
2021/05/28 08:58:22;;;;;;;8.65;6.70;;;;;;;22.93;55.13;99723.25;5049670;28;20084;-24
2021/05/28 09:00:48;;;;;;;9.73;7.32;;;;;;;22.83;55.10;99706.06;5049694;28;20110;-24
2021/05/28 09:03:17;;;;;;;11.95;7.00;;;;;;;22.71;56.41;99716.69;5049694;28;20029;-24
2021/05/28 09:05:43;;;;;;;9.18;6.97;;;;;;;23.04;56.15;99719.16;5049750;28;20447;-24
2021/05/28 09:08:09;;;;;;;9.80;6.47;;;;;;;23.57;55.76;99718.31;5049814;28;20044;-24
2021/05/28 09:10:35;;;;;;;8.93;6.60;;;;;;;24.01;53.95;99718.50;5048185;28;20382;-24
2021/05/28 09:13:21;;;;;;;8.00;5.45;;;;;;;24.21;51.89;99717.06;5049904;28;20021;-27
2021/05/28 09:16:11;;;;;;;8.80;6.10;;;;;;;24.01;53.10;99694.00;5049637;28;20039;-24
2021/05/28 09:18:50;;;;;;;14.32;10.43;;;;;;;24.13;52.68;99688.72;5049665;28;20033;-25
2021/05/28 09:21:33;;;;;;;9.95;6.50;;;;;;;24.19;51.70;99703.78;5048546;28;20028;-25
2021/05/28 09:24:06;;;;;;;8.55;4.95;;;;;;;23.95;49.85;99698.78;5049789;28;20057;-24
2021/05/28 09:26:32;;;;;;;11.00;4.82;;;;;;;23.85;50.25;99708.03;5049202;28;20071;-24
2021/05/28 09:28:58;;;;;;;8.10;4.50;;;;;;;24.27;50.45;99715.81;5049635;28;20079;-24
2021/05/28 09:31:25;;;;;;;6.95;4.63;;;;;;;23.93;51.36;99687.41;5049163;28;20033;-24
2021/05/28 09:33:52;;;;;;;7.93;5.22;;;;;;;23.94;53.22;99708.06;5049316;28;20033;-24
2021/05/28 09:36:24;;;;;;;8.77;5.43;;;;;;;23.97;53.82;99707.44;5048839;28;20064;-24
2021/05/28 09:39:00;;;;;;;7.93;5.43;;;;;;;23.44;54.09;99706.44;5048856;28;20117;-25
2021/05/28 09:41:36;;;;;;;6.95;5.68;;;;;;;23.62;56.21;99704.59;5047804;28;20394;-24
2021/05/28 09:44:13;;;;;;;13.82;8.23;;;;;;;23.30;57.97;99704.94;5049323;28;20131;-24
2021/05/28 09:46:59;;;;;;;12.25;8.25;;;;;;;23.29;58.39;99697.88;5048918;28;20029;-24
2021/05/28 09:49:25;;;;;;;10.35;7.32;;;;;;;23.74;55.96;99700.44;5048939;28;20028;-24
2021/05/28 09:52:07;;;;;;;9.90;7.50;;;;;;;23.73;55.29;99704.28;5048883;28;20053;-24
2021/05/28 09:54:33;;;;;;;10.15;7.07;;;;;;;23.61;55.35;99700.25;5048659;28;20068;-24
2021/05/28 09:56:58;;;;;;;8.82;6.97;;;;;;;23.72;55.02;99699.94;5049006;28;20860;-24
2021/05/28 09:59:24;;;;;;;8.57;6.43;;;;;;;24.01;54.08;99702.94;5048639;28;20200;-24
2021/05/28 10:01:57;;;;;;;9.20;5.18;;;;;;;24.54;52.31;99690.22;5048494;28;20063;-24
2021/05/28 10:04:22;;;;;;;7.05;4.70;;;;;;;25.51;49.15;99686.13;5048400;28;20037;-25
2021/05/28 10:06:49;;;;;;;5.82;4.13;;;;;;;25.69;47.16;99686.06;5047398;28;20025;-25
2021/05/28 10:09:14;;;;;;;9.00;4.63;;;;;;;25.54;46.24;99690.13;5047416;28;20029;-24
2021/05/28 10:11:40;;;;;;;5.22;3.05;;;;;;;25.61;42.92;99680.31;5048518;28;20044;-24
2021/05/28 10:14:07;;;;;;;5.75;3.92;;;;;;;25.85;44.26;99674.22;5048277;28;20460;-24
2021/05/28 10:16:32;;;;;;;4.17;2.47;;;;;;;25.72;39.80;99679.94;5047930;28;20082;-24
2021/05/28 10:18:58;;;;;;;5.07;2.42;;;;;;;25.46;40.03;99680.88;5048347;28;20024;-24
2021/05/28 10:21:24;;;;;;;6.70;3.40;;;;;;;25.82;41.35;99674.09;5048265;28;20477;-25
2021/05/28 10:23:50;;;;;;;9.70;5.35;;;;;;;25.70;41.23;99671.25;5048243;28;20029;-24
2021/05/28 10:26:23;;;;;;;3.25;2.55;;;;;;;26.20;37.25;99675.97;5047793;28;20025;-24
2021/05/28 10:28:48;;;;;;;5.13;1.83;;;;;;;25.99;35.43;99671.28;5046968;28;20127;-24
2021/05/28 10:31:14;;;;;;;3.65;2.20;;;;;;;26.64;35.53;99654.53;5048129;28;20108;-24
2021/05/28 10:33:50;;;;;;;4.13;1.67;;;;;;;26.62;33.50;99673.22;5047865;28;20412;-24
2021/05/28 10:36:51;;;;;;;4.60;2.08;;;;;;;26.68;34.99;99677.34;5046673;28;20473;-24
2021/05/28 10:39:17;;;;;;;3.08;1.50;;;;;;;26.60;32.41;99662.63;5045637;28;20037;-24
2021/05/28 10:41:45;;;;;;;2.28;1.50;;;;;;;26.94;32.36;99657.13;5047425;28;20524;-24
2021/05/28 10:44:13;;;;;;;4.65;1.70;;;;;;;26.80;30.75;99660.97;5047858;28;20033;-24
2021/05/28 10:46:54;;;;;;;3.42;1.40;;;;;;;26.39;29.38;99665.34;5047562;28;20032;-25
2021/05/28 10:49:22;;;;;;;2.38;1.40;;;;;;;26.40;31.08;99657.97;5047811;28;20025;-24
2021/05/28 10:51:47;;;;;;;2.63;1.40;;;;;;;26.65;31.21;99661.59;5029831;28;20094;-24
2021/05/28 10:54:16;;;;;;;2.97;1.30;;;;;;;27.09;29.78;99647.47;5047760;28;20033;-24
2021/05/28 10:56:41;;;;;;;2.67;1.38;;;;;;;26.68;31.05;99660.94;5047864;28;20531;-24
2021/05/28 10:59:17;;;;;;;5.65;2.22;;;;;;;26.15;33.08;99654.28;5047806;28;20051;-24
2021/05/28 11:01:43;;;;;;;1.50;1.35;;;;;;;25.19;34.10;99666.50;5047589;28;20069;-24
2021/05/28 11:04:11;;;;;;;8.07;1.73;;;;;;;24.93;37.68;99660.28;5047348;28;20178;-24
2021/05/28 11:07:12;;;;;;;5.93;1.80;;;;;;;24.90;38.48;99663.69;5047337;28;20405;-24
2021/05/28 11:09:38;;;;;;;5.95;1.60;;;;;;;24.24;39.88;99662.75;5044887;28;20468;-24
2021/05/28 11:12:06;;;;;;;3.80;1.60;;;;;;;23.90;41.75;99652.63;5046578;28;20041;-24
2021/05/28 11:14:35;;;;;;;6.95;2.10;;;;;;;23.62;42.82;99652.03;5047064;28;20029;-24
2021/05/28 11:17:00;;;;;;;3.88;1.77;;;;;;;23.29;44.38;99670.66;5047538;28;20064;-24
2021/05/28 11:19:32;;;;;;;3.20;1.60;;;;;;;22.85;46.71;99656.81;5047432;28;20060;-25
2021/05/28 11:22:04;;;;;;;3.53;2.03;;;;;;;22.57;49.25;99662.38;5047425;28;20451;-24